Norton, KS

12:08 AM CDT on May 26, 2015 (GMT -0500)
Prairie View, KS | | Change Station
CLOSE
Current Station
Personal Weather Station
Location: Prairie View, KS
Elevation: 2165 ft
Nearby Weather Stations

Elev 2165 ft 39.82 °N, 99.57 °W | Updated 8 minutes ago

Partly Cloudy
Partly Cloudy
59.0 °F
Feels Like 59.0 °F
N
6.8
Wind Variable Wind from West

Today
High -- | Low -- °F
--% Chance of Precip.
Yesterday
High -- | Low -- °F
Precip. -- in
6:16 AM 8:57 PM
First Quarter, 55% visible
Pressure 29.81 in
Visibility 10.0 miles
Clouds Clear
Dew Point 52 °F
Humidity 78%
Rainfall 0.00 in
Snow Depth Not available.
UV 0 out of 12
Pollen 1.50 out of 12
Air Quality Not available.
Flu Activity No Activity
METAR KHLC 260453Z AUTO 31008KT 10SM CLR 16/11 A2985 RMK AO2 SLP092 T01610106 $

More Conditions Fewer Conditions

Pressure 29.81 in
Visibility 10.0 miles
Clouds Clear
Dew Point 52 °F
Humidity 78%
Rainfall 0.00 in
Snow Depth Not available.
UV 0 out of 12
Pollen 1.50 out of 12
Air Quality Not available.
Flu Activity No Activity
METAR KHLC 260453Z AUTO 31008KT 10SM CLR 16/11 A2985 RMK AO2 SLP092 T01610106 $

More Conditions Fewer Conditions

10-Day Weather Forecast

Almanac

Astronomy

May. 26, 2015 Rise Set
Actual Time
Civil Twilight
Nautical Twilight
Astronomical Twilight
Moon
Length of Visible Light
Length of Day
Tomorrow will be .
, % of the Moon is Illuminated

Today's Extremes

State Highs State Lows

Community

WunderPhotos

Upload Photos

1,824,284 photos uploaded!

WunderBlogs® & News

Nearby

Air Quality

  Air Quality AQ Index Pollutant
Not available.

Snow Depth

Station Depth Elevation

Earthquake Activity

City Distance Mag. Time & Date
Minimum magnitude displayed is 2.5.

Coastal Water Temperatures

Place Temperature

Stations

Nearby Weather Stations

Station Location Temp. Windchill Dew Point Humidity Wind Precip. Elev Updated Type